Time;durP1;ratioP1;P1;durP2;ratioP2;P2;SDS_P1;SDS_P2;PMS_P1;PMS_P2;Temp;Humidity;BMP_temperature;BMP_pressure;BME280_temperature;BME280_humidity;BME280_pressure;Samples;Min_cycle;Max_cycle;Signal;HPM_P1;HPM_P2
2022/12/09 00:01:05;;;;;;;17.67;11.30;;;3.50;99.90;;;;;;5040651;28;20737;-56
2022/12/09 00:03:33;;;;;;;18.10;12.50;;;3.40;99.90;;;;;;5041635;28;20545;-55
2022/12/09 00:06:18;;;;;;;18.30;12.77;;;3.50;99.90;;;;;;5040143;28;20750;-55
2022/12/09 00:08:46;;;;;;;20.53;13.17;;;3.50;99.90;;;;;;5039021;28;20289;-56
2022/12/09 00:11:13;;;;;;;17.13;12.00;;;3.50;99.90;;;;;;5041513;28;20255;-56
2022/12/09 00:13:39;;;;;;;19.40;12.67;;;3.50;99.90;;;;;;5009096;28;20200;-56
2022/12/09 00:16:09;;;;;;;18.40;13.20;;;3.40;99.90;;;;;;5040582;28;20256;-56
2022/12/09 00:18:36;;;;;;;22.77;13.13;;;3.40;99.90;;;;;;5041210;28;20293;-56
2022/12/09 00:21:25;;;;;;;15.93;11.97;;;3.40;99.90;;;;;;5041921;28;20212;-55
2022/12/09 00:23:54;;;;;;;17.00;11.90;;;3.40;99.90;;;;;;5042029;28;20249;-57
2022/12/09 00:26:23;;;;;;;18.73;13.20;;;3.50;99.90;;;;;;5042608;28;20251;-56
2022/12/09 00:28:51;;;;;;;17.00;12.23;;;3.50;99.90;;;;;;5039915;28;20206;-56
2022/12/09 00:31:23;;;;;;;18.10;12.73;;;3.50;99.90;;;;;;5037804;28;20215;-56
2022/12/09 00:33:51;;;;;;;17.40;12.40;;;3.50;99.90;;;;;;5042043;28;20531;-56
2022/12/09 00:36:20;;;;;;;17.87;12.87;;;3.50;99.90;;;;;;5044081;28;20245;-56
2022/12/09 00:38:48;;;;;;;16.63;11.77;;;3.60;99.90;;;;;;5038739;28;20209;-56
2022/12/09 00:41:15;;;;;;;19.27;13.07;;;3.50;99.90;;;;;;5035783;28;20199;-58
2022/12/09 00:43:43;;;;;;;19.53;12.67;;;3.60;99.90;;;;;;5038788;28;20304;-55
2022/12/09 00:46:11;;;;;;;16.60;11.97;;;3.60;99.90;;;;;;5038689;28;20224;-56
2022/12/09 00:48:38;;;;;;;18.40;12.57;;;3.60;99.90;;;;;;5039752;28;20193;-56
2022/12/09 00:51:06;;;;;;;16.37;12.33;;;3.50;99.90;;;;;;5039415;28;20379;-56
2022/12/09 00:53:33;;;;;;;16.97;12.80;;;3.40;99.90;;;;;;5039887;28;20232;-56
2022/12/09 00:56:01;;;;;;;18.90;12.10;;;3.50;99.90;;;;;;5038178;28;20215;-54
2022/12/09 00:58:27;;;;;;;17.47;12.50;;;3.60;99.90;;;;;;5038795;28;20229;-57
2022/12/09 01:00:55;;;;;;;16.77;12.83;;;3.50;99.90;;;;;;5038428;28;20202;-56
2022/12/09 01:03:22;;;;;;;18.23;13.20;;;3.60;99.90;;;;;;5041627;28;20616;-57
2022/12/09 01:05:50;;;;;;;18.57;13.07;;;3.50;99.90;;;;;;5036704;28;20246;-57
2022/12/09 01:08:17;;;;;;;20.87;13.60;;;3.50;99.90;;;;;;5039029;28;20208;-56
2022/12/09 01:10:44;;;;;;;19.50;14.30;;;3.50;99.90;;;;;;5037778;28;20723;-57
2022/12/09 01:13:13;;;;;;;19.03;13.13;;;3.50;99.90;;;;;;5035694;28;20205;-58
2022/12/09 01:15:41;;;;;;;19.07;13.90;;;3.50;99.90;;;;;;5034285;28;20641;-57
2022/12/09 01:18:10;;;;;;;22.50;14.03;;;3.60;99.90;;;;;;5030021;28;20553;-56
2022/12/09 01:20:36;;;;;;;17.90;13.30;;;3.60;99.90;;;;;;5037868;28;20242;-58
2022/12/09 01:23:03;;;;;;;18.07;13.50;;;3.60;99.90;;;;;;5040971;28;20214;-57
2022/12/09 01:25:30;;;;;;;20.10;12.97;;;3.70;99.90;;;;;;5040515;28;20218;-56
2022/12/09 01:27:57;;;;;;;20.00;12.43;;;3.70;99.90;;;;;;5039172;28;20296;-54
2022/12/09 01:30:24;;;;;;;20.40;14.17;;;3.70;99.90;;;;;;5042836;28;20283;-57
2022/12/09 01:32:51;;;;;;;23.53;15.37;;;3.70;99.90;;;;;;5040089;28;20194;-56
2022/12/09 01:35:18;;;;;;;22.63;14.73;;;3.80;99.90;;;;;;5054575;28;20232;-55
2022/12/09 01:37:45;;;;;;;20.83;14.50;;;3.80;99.90;;;;;;5038829;28;20296;-54
2022/12/09 01:40:16;;;;;;;20.13;13.93;;;3.70;99.90;;;;;;5040322;28;20225;-56
2022/12/09 01:42:44;;;;;;;23.37;14.53;;;3.80;99.90;;;;;;5040125;28;20309;-55
2022/12/09 01:45:29;;;;;;;21.80;15.47;;;3.70;99.90;;;;;;5039807;28;20215;-56
2022/12/09 01:48:02;;;;;;;24.87;14.67;;;3.70;99.90;;;;;;5039029;28;20245;-56
2022/12/09 01:50:31;;;;;;;21.13;14.30;;;3.50;99.90;;;;;;5039594;28;20255;-56
2022/12/09 01:52:58;;;;;;;24.17;13.90;;;3.70;99.90;;;;;;5020467;28;20590;-61
2022/12/09 01:55:26;;;;;;;24.87;14.63;;;3.70;99.90;;;;;;5039441;28;20221;-57
2022/12/09 01:57:53;;;;;;;25.40;14.93;;;3.80;99.90;;;;;;5030710;28;20674;-56
2022/12/09 02:00:20;;;;;;;26.50;16.10;;;3.70;99.90;;;;;;5035183;28;20238;-56
2022/12/09 02:02:48;;;;;;;23.20;14.80;;;3.60;99.90;;;;;;5034590;28;20234;-57
2022/12/09 02:05:16;;;;;;;25.33;15.70;;;3.70;99.90;;;;;;5037772;28;20308;-59
2022/12/09 02:07:43;;;;;;;24.83;15.37;;;3.70;99.90;;;;;;5036626;28;20197;-56
2022/12/09 02:10:14;;;;;;;23.77;14.77;;;3.80;99.90;;;;;;5040804;28;20284;-56
2022/12/09 02:12:58;;;;;;;23.73;14.13;;;3.70;99.90;;;;;;5039671;28;20226;-55
2022/12/09 02:15:49;;;;;;;25.23;14.83;;;3.70;99.90;;;;;;5039049;28;20211;-57
2022/12/09 02:18:16;;;;;;;23.33;14.10;;;3.60;99.90;;;;;;5016348;28;20210;-57
2022/12/09 02:20:59;;;;;;;22.23;14.17;;;3.70;99.90;;;;;;5030937;28;20205;-56
2022/12/09 02:23:38;;;;;;;26.50;14.53;;;3.70;99.90;;;;;;5030873;28;20963;-56
2022/12/09 02:26:33;;;;;;;25.33;14.73;;;3.70;99.90;;;;;;5032289;28;20252;-56
2022/12/09 02:29:19;;;;;;;24.97;15.27;;;3.70;99.90;;;;;;5030236;28;20218;-56
2022/12/09 02:32:08;;;;;;;26.40;15.33;;;3.60;99.90;;;;;;5034757;28;20540;-56
2022/12/09 02:34:42;;;;;;;25.53;14.80;;;3.70;99.90;;;;;;5032699;28;20663;-57
2022/12/09 02:37:22;;;;;;;31.13;15.87;;;3.80;99.90;;;;;;5031610;28;20720;-56
2022/12/09 02:40:01;;;;;;;25.80;15.23;;;3.80;99.90;;;;;;5032988;28;20669;-56
2022/12/09 02:42:32;;;;;;;29.50;15.40;;;3.70;99.90;;;;;;5030996;28;20223;-55
2022/12/09 02:45:02;;;;;;;26.53;14.97;;;3.60;99.90;;;;;;5032071;28;20204;-55
2022/12/09 02:47:33;;;;;;;30.83;15.80;;;3.70;99.90;;;;;;5031799;28;20216;-55
2022/12/09 02:50:04;;;;;;;28.07;16.60;;;3.60;99.90;;;;;;5035077;28;20663;-56
2022/12/09 02:52:34;;;;;;;32.70;17.77;;;3.60;99.90;;;;;;5015092;28;20318;-56
2022/12/09 02:55:05;;;;;;;31.27;16.90;;;3.70;99.90;;;;;;5032046;28;20199;-59
2022/12/09 02:57:35;;;;;;;28.63;15.97;;;3.70;99.90;;;;;;5032505;28;20215;-56
2022/12/09 03:00:05;;;;;;;28.60;15.87;;;3.60;99.90;;;;;;5033509;28;20368;-56
2022/12/09 03:02:43;;;;;;;27.30;16.10;;;3.60;99.90;;;;;;5026360;28;20666;-56
2022/12/09 03:05:20;;;;;;;26.37;15.93;;;3.60;99.90;;;;;;5029542;28;20653;-57
2022/12/09 03:08:05;;;;;;;31.10;17.27;;;3.70;99.90;;;;;;5030329;28;20583;-56
2022/12/09 03:11:01;;;;;;;29.07;16.30;;;3.70;99.90;;;;;;5029711;28;20222;-56
2022/12/09 03:13:30;;;;;;;28.30;14.97;;;3.70;99.90;;;;;;5030157;28;20208;-56
2022/12/09 03:16:20;;;;;;;26.03;15.07;;;3.80;99.90;;;;;;5030320;28;20299;-56
2022/12/09 03:18:54;;;;;;;31.53;16.93;;;3.70;99.90;;;;;;5029639;28;20226;-58
2022/12/09 03:21:24;;;;;;;26.17;15.37;;;3.70;99.90;;;;;;5030245;28;20574;-56
2022/12/09 03:23:55;;;;;;;27.43;16.40;;;3.70;99.90;;;;;;5039669;28;20294;-54
2022/12/09 03:26:26;;;;;;;33.67;16.30;;;3.70;99.90;;;;;;5034272;28;20564;-57
2022/12/09 03:28:54;;;;;;;27.77;15.07;;;3.70;99.90;;;;;;5037328;28;20295;-57
2022/12/09 03:31:25;;;;;;;32.67;15.50;;;3.70;99.90;;;;;;5037916;28;20204;-58
2022/12/09 03:33:56;;;;;;;30.77;17.27;;;3.70;99.90;;;;;;5038349;28;20200;-57
2022/12/09 03:36:26;;;;;;;30.20;16.20;;;3.70;99.90;;;;;;5033757;28;20262;-57
2022/12/09 03:38:54;;;;;;;31.03;15.50;;;3.70;99.90;;;;;;5038078;28;20221;-56
2022/12/09 03:41:24;;;;;;;31.13;15.33;;;3.70;99.90;;;;;;5035080;28;20466;-54
2022/12/09 03:44:03;;;;;;;29.93;16.43;;;3.80;99.90;;;;;;5037209;28;20199;-57
2022/12/09 03:46:30;;;;;;;29.53;15.03;;;3.80;99.90;;;;;;5035635;28;20249;-56
2022/12/09 03:48:58;;;;;;;22.77;14.33;;;3.90;99.90;;;;;;5034602;28;20208;-56
2022/12/09 03:51:30;;;;;;;28.13;15.70;;;3.80;99.90;;;;;;5028323;28;20205;-57
2022/12/09 03:54:04;;;;;;;31.10;16.70;;;3.70;99.90;;;;;;5036653;28;20284;-57
2022/12/09 03:56:36;;;;;;;29.07;16.20;;;3.80;99.90;;;;;;5036362;28;20955;-56
2022/12/09 03:59:08;;;;;;;27.20;14.23;;;3.80;99.90;;;;;;5035115;28;20256;-54
2022/12/09 04:01:35;;;;;;;27.67;15.27;;;3.80;99.90;;;;;;5036236;28;20258;-55
2022/12/09 04:04:02;;;;;;;29.47;15.30;;;3.80;99.90;;;;;;5035825;28;20578;-56
2022/12/09 04:06:29;;;;;;;33.07;16.53;;;3.80;99.90;;;;;;5036669;28;20237;-54
2022/12/09 04:08:56;;;;;;;28.20;15.20;;;3.80;99.90;;;;;;5039486;28;20565;-56
2022/12/09 04:11:29;;;;;;;25.53;15.17;;;3.80;99.90;;;;;;5037527;28;20233;-57
2022/12/09 04:13:56;;;;;;;29.73;15.27;;;3.80;99.90;;;;;;5040536;28;20300;-57
2022/12/09 04:16:23;;;;;;;27.60;15.67;;;3.80;99.90;;;;;;5036135;28;20207;-56
2022/12/09 04:18:50;;;;;;;27.90;15.77;;;3.80;99.90;;;;;;5035518;28;20210;-55
2022/12/09 04:21:17;;;;;;;27.73;15.53;;;3.80;99.90;;;;;;5034656;28;21316;-54
2022/12/09 04:23:43;;;;;;;28.37;15.03;;;3.80;99.90;;;;;;5035681;28;20232;-55
2022/12/09 04:26:17;;;;;;;32.80;17.90;;;3.80;99.90;;;;;;5043670;28;20213;-57
2022/12/09 04:28:44;;;;;;;30.20;15.87;;;3.80;99.90;;;;;;5041376;28;20205;-56
2022/12/09 04:31:13;;;;;;;27.80;15.17;;;3.80;99.90;;;;;;5041716;28;20235;-57
2022/12/09 04:33:40;;;;;;;29.90;16.40;;;3.90;99.90;;;;;;5038596;28;20198;-56
2022/12/09 04:36:10;;;;;;;34.03;17.37;;;3.80;99.90;;;;;;5030168;28;20269;-56
2022/12/09 04:38:37;;;;;;;32.87;18.47;;;3.80;99.90;;;;;;5041432;28;20222;-56
2022/12/09 04:41:04;;;;;;;29.63;15.83;;;3.80;99.90;;;;;;5040824;28;20580;-56
2022/12/09 04:43:32;;;;;;;32.63;17.60;;;3.80;99.90;;;;;;5040662;28;20298;-55
2022/12/09 04:46:05;;;;;;;28.63;17.03;;;3.90;99.90;;;;;;5040860;28;20220;-56
2022/12/09 04:48:33;;;;;;;32.30;16.93;;;3.80;99.90;;;;;;5021628;28;20256;-56
2022/12/09 04:50:59;;;;;;;33.60;17.63;;;3.80;99.90;;;;;;5039401;28;20654;-55
2022/12/09 04:53:27;;;;;;;34.17;17.40;;;3.90;99.90;;;;;;5034705;28;20194;-56
2022/12/09 04:56:07;;;;;;;33.50;18.70;;;3.80;99.90;;;;;;5039245;28;20198;-56
2022/12/09 04:58:34;;;;;;;33.80;19.03;;;3.80;99.90;;;;;;5038588;28;20196;-56
2022/12/09 05:01:09;;;;;;;33.90;18.63;;;3.80;99.90;;;;;;5040257;28;20294;-56
2022/12/09 05:03:36;;;;;;;33.07;19.17;;;3.80;99.90;;;;;;5040328;28;20317;-57
2022/12/09 05:06:06;;;;;;;31.93;17.37;;;3.80;99.90;;;;;;5037257;28;20227;-56
2022/12/09 05:08:33;;;;;;;32.50;17.77;;;3.80;99.90;;;;;;5035775;28;20306;-57
2022/12/09 05:11:00;;;;;;;34.73;17.73;;;3.80;99.90;;;;;;5055702;28;20228;-57
2022/12/09 05:13:28;;;;;;;32.87;18.70;;;3.80;99.90;;;;;;5040910;28;20713;-56
2022/12/09 05:15:59;;;;;;;33.80;17.43;;;3.80;99.90;;;;;;5040305;28;20211;-56
2022/12/09 05:18:27;;;;;;;32.27;17.43;;;3.80;99.90;;;;;;5054717;28;20211;-56
2022/12/09 05:20:55;;;;;;;33.93;18.87;;;3.80;99.90;;;;;;5039003;28;20214;-57
2022/12/09 05:23:22;;;;;;;31.57;18.40;;;3.80;99.90;;;;;;5034507;28;20199;-56
2022/12/09 05:25:49;;;;;;;33.07;17.43;;;3.80;99.90;;;;;;5037567;28;20688;-56
2022/12/09 05:28:16;;;;;;;31.07;18.57;;;3.80;99.90;;;;;;5034769;28;20216;-56
2022/12/09 05:30:43;;;;;;;29.97;18.17;;;3.80;99.90;;;;;;5038805;28;20215;-57
2022/12/09 05:33:10;;;;;;;32.50;18.27;;;3.80;99.90;;;;;;5037977;28;20612;-56
2022/12/09 05:35:38;;;;;;;34.13;18.53;;;3.80;99.90;;;;;;5036961;28;20241;-56
2022/12/09 05:38:18;;;;;;;30.93;18.93;;;3.80;99.90;;;;;;5037889;28;20211;-57
2022/12/09 05:40:45;;;;;;;37.40;18.63;;;3.80;99.90;;;;;;5031984;28;20289;-57
2022/12/09 05:43:12;;;;;;;31.37;18.57;;;3.70;99.90;;;;;;5030780;28;20705;-56
2022/12/09 05:45:39;;;;;;;38.43;19.87;;;3.70;99.90;;;;;;5037868;28;20281;-57
2022/12/09 05:48:06;;;;;;;35.47;19.40;;;3.70;99.90;;;;;;5038953;28;20209;-55
2022/12/09 05:50:33;;;;;;;37.10;18.90;;;3.70;99.90;;;;;;5040983;28;20294;-55
2022/12/09 05:53:00;;;;;;;32.27;18.77;;;3.70;99.90;;;;;;5039128;28;20638;-56
2022/12/09 05:55:27;;;;;;;35.70;18.67;;;3.70;99.90;;;;;;5036739;28;21136;-55
2022/12/09 05:57:54;;;;;;;37.30;19.17;;;3.70;99.90;;;;;;5034489;28;20202;-56
2022/12/09 06:00:22;;;;;;;32.57;17.93;;;3.70;99.90;;;;;;5038745;28;20210;-56
2022/12/09 06:02:49;;;;;;;32.77;18.30;;;3.70;99.90;;;;;;5038402;28;20247;-58
2022/12/09 06:05:17;;;;;;;33.20;19.40;;;3.80;99.90;;;;;;5038501;28;20211;-56
2022/12/09 06:07:44;;;;;;;32.70;19.03;;;3.70;99.90;;;;;;5037727;28;20680;-56
2022/12/09 06:10:11;;;;;;;33.20;18.70;;;3.70;99.90;;;;;;5040243;28;20225;-57
2022/12/09 06:12:39;;;;;;;29.87;17.87;;;3.70;99.90;;;;;;5039158;28;20259;-57
2022/12/09 06:15:07;;;;;;;36.23;18.77;;;3.70;99.90;;;;;;5037586;28;20273;-56
2022/12/09 06:17:37;;;;;;;34.93;20.00;;;3.70;99.90;;;;;;5021671;28;20267;-56
2022/12/09 06:20:04;;;;;;;42.37;21.10;;;3.60;99.90;;;;;;5032541;28;20213;-54
2022/12/09 06:22:33;;;;;;;36.57;19.47;;;3.60;99.90;;;;;;5038582;28;20558;-56
2022/12/09 06:25:00;;;;;;;41.67;19.87;;;3.50;99.90;;;;;;5035131;28;20213;-57
2022/12/09 06:27:27;;;;;;;37.33;19.93;;;3.60;99.90;;;;;;5032706;28;20230;-55
2022/12/09 06:29:54;;;;;;;36.97;19.40;;;3.60;99.90;;;;;;5039070;28;20197;-55
2022/12/09 06:32:21;;;;;;;35.47;20.47;;;3.60;99.90;;;;;;5037427;28;20203;-56
2022/12/09 06:34:48;;;;;;;36.43;19.67;;;3.60;99.90;;;;;;5040536;28;20212;-56
2022/12/09 06:37:16;;;;;;;35.63;20.00;;;3.60;99.90;;;;;;5038283;28;20253;-56
2022/12/09 06:39:43;;;;;;;37.17;20.03;;;3.60;99.90;;;;;;5037471;28;20216;-57
2022/12/09 06:42:10;;;;;;;36.10;19.97;;;3.50;99.90;;;;;;5036218;28;20204;-56
2022/12/09 06:44:38;;;;;;;33.53;18.87;;;3.50;99.90;;;;;;5036048;28;20207;-57
2022/12/09 06:47:06;;;;;;;40.80;21.50;;;3.60;99.90;;;;;;5030609;28;21241;-55
2022/12/09 06:49:34;;;;;;;39.43;20.07;;;3.50;99.90;;;;;;5033946;28;20287;-56
2022/12/09 06:52:01;;;;;;;35.23;19.77;;;3.50;99.90;;;;;;5033313;28;20197;-54
2022/12/09 06:54:28;;;;;;;38.50;19.57;;;3.50;99.90;;;;;;5020618;28;20196;-55
2022/12/09 06:56:56;;;;;;;45.53;21.13;;;3.60;99.90;;;;;;5027296;28;20198;-56
2022/12/09 06:59:23;;;;;;;38.27;21.20;;;3.60;99.90;;;;;;5025582;28;22507;-54
2022/12/09 07:01:51;;;;;;;35.63;20.10;;;3.60;99.90;;;;;;4661610;28;9999911;-60
2022/12/09 07:04:18;;;;;;;39.40;19.53;;;3.60;99.90;;;;;;5028567;28;20209;-56
2022/12/09 07:06:45;;;;;;;34.13;19.33;;;3.60;99.90;;;;;;5000896;28;20899;-56
2022/12/09 07:09:22;;;;;;;35.07;20.43;;;3.60;99.90;;;;;;5025204;28;20232;-55
2022/12/09 07:11:50;;;;;;;38.00;20.00;;;3.60;99.90;;;;;;5023719;28;20293;-56
2022/12/09 07:14:17;;;;;;;35.17;19.10;;;3.50;99.90;;;;;;5010374;28;20632;-57
2022/12/09 07:16:45;;;;;;;38.80;18.93;;;3.50;99.90;;;;;;5032803;28;20605;-57
2022/12/09 07:19:18;;;;;;;35.07;19.10;;;3.50;99.90;;;;;;5039658;28;20207;-56
2022/12/09 07:21:46;;;;;;;34.20;17.93;;;3.40;99.90;;;;;;5033231;28;20200;-56
2022/12/09 07:24:13;;;;;;;37.73;19.60;;;3.40;99.90;;;;;;5030602;28;20212;-55
2022/12/09 07:26:41;;;;;;;34.63;18.37;;;3.40;99.90;;;;;;5031579;28;20224;-57
2022/12/09 07:29:08;;;;;;;37.47;18.97;;;3.30;99.90;;;;;;5035186;28;20200;-56
2022/12/09 07:31:35;;;;;;;35.17;17.20;;;3.30;99.90;;;;;;5034346;28;20605;-57
2022/12/09 07:34:03;;;;;;;33.20;16.80;;;3.40;99.90;;;;;;5027785;28;20211;-57
2022/12/09 07:36:32;;;;;;;30.97;18.83;;;3.30;99.90;;;;;;5034861;28;20263;-57
2022/12/09 07:39:02;;;;;;;35.83;17.50;;;3.20;99.90;;;;;;5036847;28;20201;-56
2022/12/09 07:41:29;;;;;;;38.63;17.67;;;3.30;99.90;;;;;;5036083;28;21775;-57
2022/12/09 07:43:56;;;;;;;33.83;17.40;;;3.30;99.90;;;;;;5037443;28;20197;-56
2022/12/09 07:46:26;;;;;;;32.43;17.07;;;3.20;99.90;;;;;;5037664;28;20243;-56
2022/12/09 07:48:54;;;;;;;30.33;17.97;;;3.30;99.90;;;;;;5038089;28;20219;-56
2022/12/09 07:51:23;;;;;;;36.10;18.33;;;3.30;99.90;;;;;;5036626;28;20660;-56
2022/12/09 07:53:50;;;;;;;39.33;20.30;;;3.40;99.90;;;;;;5037543;28;20228;-57
2022/12/09 07:56:18;;;;;;;33.87;16.70;;;3.40;99.90;;;;;;5035708;28;20555;-57
2022/12/09 07:58:46;;;;;;;36.00;17.67;;;3.20;99.90;;;;;;5035273;28;20209;-57
2022/12/09 08:01:16;;;;;;;28.70;16.97;;;3.30;99.90;;;;;;5037055;28;20205;-57
2022/12/09 08:03:43;;;;;;;32.77;17.67;;;3.40;99.90;;;;;;5035753;28;20201;-56
2022/12/09 08:06:13;;;;;;;35.23;16.87;;;3.50;99.90;;;;;;5033870;28;20539;-56
2022/12/09 08:08:41;;;;;;;31.80;16.53;;;3.50;99.90;;;;;;5039807;28;20310;-56
2022/12/09 08:11:14;;;;;;;33.57;16.20;;;3.50;99.90;;;;;;5034055;28;20224;-56
2022/12/09 08:13:41;;;;;;;32.60;17.93;;;3.30;99.90;;;;;;5039906;28;20703;-56
2022/12/09 08:16:10;;;;;;;34.47;18.17;;;3.20;99.90;;;;;;5039961;28;20296;-56
2022/12/09 08:18:38;;;;;;;29.03;16.13;;;3.30;99.90;;;;;;5039776;28;20211;-56
2022/12/09 08:21:09;;;;;;;27.93;16.30;;;3.20;95.30;;;;;;5038517;28;20200;-56
2022/12/09 08:23:37;;;;;;;34.83;16.60;;;3.20;44.90;;;;;;5041963;28;20353;-56
2022/12/09 08:26:05;;;;;;;31.70;16.43;;;3.10;1.00;;;;;;5044217;28;20204;-56
2022/12/09 08:28:31;;;;;;;26.23;14.70;;;3.20;1.00;;;;;;5037300;28;20228;-55
2022/12/09 08:31:06;;;;;;;30.70;16.60;;;3.10;1.00;;;;;;5036739;28;20193;-56
2022/12/09 08:33:34;;;;;;;29.13;15.80;;;3.30;1.00;;;;;;5040301;28;20306;-56
2022/12/09 08:36:03;;;;;;;25.63;15.70;;;3.20;1.00;;;;;;5041962;28;20239;-62
2022/12/09 08:38:30;;;;;;;28.17;16.67;;;3.30;1.00;;;;;;5034273;28;20211;-57
2022/12/09 08:40:57;;;;;;;33.17;17.10;;;3.30;1.00;;;;;;5036535;28;20679;-57
2022/12/09 08:43:24;;;;;;;30.40;15.60;;;3.40;1.00;;;;;;5037197;28;20235;-56
2022/12/09 08:45:51;;;;;;;32.40;16.67;;;3.50;1.00;;;;;;5035246;28;20306;-56
2022/12/09 08:48:18;;;;;;;28.37;16.63;;;3.60;20.30;;;;;;5031571;28;20291;-58
2022/12/09 08:50:46;;;;;;;28.83;16.30;;;3.70;1.00;;;;;;5033030;28;20224;-55
2022/12/09 08:53:14;;;;;;;28.03;17.03;;;3.70;99.90;;;;;;5036193;28;20223;-56
2022/12/09 08:55:41;;;;;;;30.77;17.23;;;3.70;1.00;;;;;;5037523;28;20195;-58
2022/12/09 08:58:08;;;;;;;31.00;16.47;;;3.40;99.90;;;;;;5031418;28;20304;-63
2022/12/09 09:00:35;;;;;;;29.20;16.20;;;3.60;99.90;;;;;;5029829;28;20208;-55
2022/12/09 09:03:02;;;;;;;28.67;16.87;;;3.70;1.00;;;;;;5031925;28;20222;-55
2022/12/09 09:05:30;;;;;;;30.13;18.07;;;3.90;1.00;;;;;;5046849;28;20714;-56
2022/12/09 09:07:58;;;;;;;31.30;17.17;;;3.90;1.00;;;;;;5028124;28;20219;-55
2022/12/09 09:10:26;;;;;;;31.70;17.43;;;3.80;1.00;;;;;;5032825;28;20228;-56
2022/12/09 09:12:53;;;;;;;30.40;16.80;;;3.80;1.00;;;;;;5036419;28;20257;-56
2022/12/09 09:15:20;;;;;;;33.80;17.40;;;3.80;1.00;;;;;;5035063;28;20335;-55
2022/12/09 09:17:47;;;;;;;29.37;16.77;;;3.70;1.00;;;;;;5034361;28;21602;-55
2022/12/09 09:20:18;;;;;;;30.67;16.63;;;3.70;99.90;;;;;;5027682;28;20325;-55
2022/12/09 09:22:45;;;;;;;32.97;16.33;;;3.70;99.90;;;;;;5031248;28;20204;-55
2022/12/09 09:25:12;;;;;;;30.13;17.03;;;3.80;99.90;;;;;;5031634;28;20262;-60
2022/12/09 09:27:40;;;;;;;29.87;16.43;;;3.90;1.90;;;;;;5033434;28;20220;-56
2022/12/09 09:30:08;;;;;;;32.03;17.80;;;3.90;99.90;;;;;;5029005;28;20201;-55
2022/12/09 09:32:36;;;;;;;28.23;16.03;;;4.00;1.00;;;;;;5031554;28;20731;-55
2022/12/09 09:35:03;;;;;;;32.20;17.83;;;3.90;1.00;;;;;;5033838;28;20204;-54
2022/12/09 09:37:31;;;;;;;29.97;16.63;;;3.90;66.80;;;;;;5035377;28;20232;-56
2022/12/09 09:39:58;;;;;;;29.53;17.60;;;3.80;1.00;;;;;;5036186;28;20231;-56
2022/12/09 09:42:34;;;;;;;30.50;16.43;;;4.00;99.90;;;;;;5035878;28;20661;-56
2022/12/09 09:45:09;;;;;;;27.37;16.17;;;4.00;56.30;;;;;;5032814;28;20200;-56
2022/12/09 09:47:42;;;;;;;31.83;17.97;;;3.90;1.00;;;;;;5028446;28;20220;-56
2022/12/09 09:50:30;;;;;;;24.73;14.80;;;3.90;40.80;;;;;;5031576;28;20215;-56
2022/12/09 09:53:01;;;;;;;30.37;17.10;;;3.60;99.90;;;;;;5039368;28;20207;-56
2022/12/09 09:55:59;;;;;;;28.53;16.47;;;3.50;99.90;;;;;;5031660;28;20204;-57
2022/12/09 09:58:48;;;;;;;29.00;16.13;;;3.60;1.00;;;;;;5023455;28;20199;-57
2022/12/09 10:01:17;;;;;;;29.23;16.87;;;3.60;1.00;;;;;;5030744;28;20228;-55
2022/12/09 10:04:01;;;;;;;28.23;16.67;;;3.50;1.00;;;;;;5027830;28;20228;-56
2022/12/09 10:07:09;;;;;;;29.83;16.90;;;3.50;1.00;;;;;;5030783;28;20286;-57
2022/12/09 10:09:39;;;;;;;28.53;16.17;;;3.70;1.00;;;;;;5015854;28;20200;-55
2022/12/09 10:12:35;;;;;;;26.57;15.43;;;3.70;99.90;;;;;;5033636;28;20251;-56
2022/12/09 10:15:13;;;;;;;27.83;15.60;;;3.70;7.50;;;;;;5034103;28;20209;-55
2022/12/09 10:17:52;;;;;;;27.27;15.67;;;3.60;1.00;;;;;;5031561;28;20207;-55
2022/12/09 10:20:27;;;;;;;29.07;15.57;;;3.50;97.10;;;;;;5031565;28;20230;-56
2022/12/09 10:23:05;;;;;;;26.60;15.30;;;3.40;1.00;;;;;;5031330;28;20204;-56
2022/12/09 10:25:36;;;;;;;29.73;14.60;;;3.40;44.00;;;;;;5031302;28;20207;-57
2022/12/09 10:28:14;;;;;;;26.47;14.97;;;3.50;1.00;;;;;;5034562;28;20290;-56
2022/12/09 10:30:41;;;;;;;29.40;14.97;;;3.60;99.90;;;;;;5029198;28;20278;-56
2022/12/09 10:33:12;;;;;;;27.60;15.50;;;3.50;1.00;;;;;;5035623;28;20193;-57
2022/12/09 10:35:40;;;;;;;30.70;16.20;;;3.40;1.00;;;;;;5034099;28;20295;-57
2022/12/09 10:38:16;;;;;;;25.47;16.43;;;3.30;1.00;;;;;;5033726;28;20208;-62
2022/12/09 10:40:46;;;;;;;25.33;15.37;;;3.20;1.00;;;;;;5015300;28;20204;-57
2022/12/09 10:44:01;;;;;;;26.30;15.70;;;3.20;1.00;;;;;;5030459;28;20308;-56
2022/12/09 10:46:23;;;;;;;28.67;16.07;;;3.00;99.90;;;;;;5023546;28;20200;-55
2022/12/09 10:48:56;;;;;;;29.87;15.80;;;3.10;1.00;;;;;;5030154;28;20250;-56
2022/12/09 10:51:26;;;;;;;30.57;16.97;;;3.10;99.90;;;;;;5032337;28;20200;-56
2022/12/09 10:54:01;;;;;;;27.63;15.10;;;3.10;1.00;;;;;;5030098;28;20196;-57
2022/12/09 10:56:32;;;;;;;26.63;16.23;;;3.10;1.00;;;;;;5030972;28;20623;-56
2022/12/09 10:59:12;;;;;;;29.93;16.70;;;3.10;1.00;;;;;;5013080;28;20678;-56
2022/12/09 11:01:59;;;;;;;25.73;16.30;;;3.10;99.90;;;;;;5029138;28;20242;-57
2022/12/09 11:04:33;;;;;;;27.20;16.00;;;3.20;1.00;;;;;;5032002;28;20212;-60
2022/12/09 11:07:09;;;;;;;29.67;17.30;;;3.20;1.00;;;;;;5030881;28;20208;-59
2022/12/09 11:09:40;;;;;;;31.27;17.80;;;3.50;1.00;;;;;;5033146;28;20223;-57
2022/12/09 11:12:26;;;;;;;28.83;16.30;;;3.50;1.00;;;;;;5034022;28;20276;-57
2022/12/09 11:15:00;;;;;;;26.07;16.33;;;3.60;70.40;;;;;;5034805;28;20196;-56
2022/12/09 11:17:41;;;;;;;29.57;15.80;;;3.50;99.90;;;;;;5034112;28;20249;-56
2022/12/09 11:20:21;;;;;;;29.27;15.37;;;3.60;99.90;;;;;;5036294;28;20683;-57
2022/12/09 11:23:19;;;;;;;27.50;15.67;;;3.40;99.90;;;;;;5032839;28;20279;-57
2022/12/09 11:26:20;;;;;;;25.90;15.57;;;3.20;99.90;;;;;;5009475;28;20645;-56
2022/12/09 11:29:14;;;;;;;23.13;15.07;;;3.10;1.00;;;;;;5018479;28;20217;-56
2022/12/09 11:31:42;;;;;;;27.17;14.83;;;3.00;1.00;;;;;;5027741;28;20254;-58
2022/12/09 11:34:24;;;;;;;30.83;16.63;;;2.90;1.00;;;;;;5033727;28;20629;-55
2022/12/09 11:36:55;;;;;;;28.83;15.70;;;2.80;1.00;;;;;;5035174;28;20247;-57
2022/12/09 11:39:32;;;;;;;31.00;16.90;;;2.90;1.00;;;;;;5028376;28;20573;-56
2022/12/09 11:42:16;;;;;;;23.93;15.60;;;2.90;5.70;;;;;;5025833;28;20699;-61
2022/12/09 11:44:59;;;;;;;26.83;15.60;;;2.90;1.00;;;;;;5030001;28;20208;-57
2022/12/09 11:47:32;;;;;;;27.20;15.17;;;2.80;1.00;;;;;;5027246;28;20207;-56
2022/12/09 11:50:31;;;;;;;29.17;14.93;;;3.00;42.40;;;;;;5028407;28;20256;-57
2022/12/09 11:53:11;;;;;;;25.53;15.83;;;2.90;1.00;;;;;;5013267;28;20199;-56
2022/12/09 11:55:57;;;;;;;22.80;14.90;;;2.70;1.00;;;;;;5028044;28;20239;-57
2022/12/09 11:58:39;;;;;;;26.47;15.77;;;2.90;1.00;;;;;;5025857;28;20204;-56
2022/12/09 12:01:14;;;;;;;26.57;15.00;;;3.00;1.00;;;;;;5012584;28;20234;-57
2022/12/09 12:03:46;;;;;;;28.97;15.67;;;3.10;1.00;;;;;;5023936;28;20367;-57
2022/12/09 12:06:27;;;;;;;33.23;15.33;;;3.10;99.90;;;;;;5027655;28;20604;-55
2022/12/09 12:09:04;;;;;;;25.33;15.20;;;3.10;1.00;;;;;;5026816;28;20310;-59
2022/12/09 12:11:45;;;;;;;26.60;15.87;;;3.00;1.00;;;;;;5027524;28;20216;-56
2022/12/09 12:14:16;;;;;;;27.70;15.37;;;3.10;71.90;;;;;;5031398;28;20192;-57
2022/12/09 12:16:52;;;;;;;25.60;15.07;;;3.10;40.00;;;;;;5026038;28;20214;-57
2022/12/09 12:19:22;;;;;;;25.90;15.13;;;3.30;1.00;;;;;;5027778;28;21987;-57
2022/12/09 12:22:05;;;;;;;25.87;14.20;;;3.40;1.00;;;;;;5011256;28;20203;-54
2022/12/09 12:24:55;;;;;;;27.00;15.37;;;3.20;1.00;;;;;;5026595;28;20216;-55
2022/12/09 12:27:55;;;;;;;28.60;16.07;;;3.30;99.90;;;;;;5026615;28;20216;-56
2022/12/09 12:30:32;;;;;;;29.47;15.33;;;3.40;99.90;;;;;;5028803;28;22001;-56
2022/12/09 12:33:21;;;;;;;26.83;15.10;;;3.40;1.00;;;;;;5027368;28;20222;-55
2022/12/09 12:36:27;;;;;;;30.83;16.43;;;3.50;99.90;;;;;;5031842;28;20226;-56
2022/12/09 12:39:12;;;;;;;24.30;14.23;;;3.30;1.00;;;;;;5033870;28;20580;-56
2022/12/09 12:41:49;;;;;;;27.90;14.43;;;3.40;1.00;;;;;;5024831;28;20204;-56
2022/12/09 12:47:09;;;;;;;29.30;15.67;;;3.50;1.00;;;;;;5031382;28;20204;-55
2022/12/09 12:49:55;;;;;;;26.57;14.73;;;3.70;99.90;;;;;;5022745;28;22011;-56
2022/12/09 12:52:35;;;;;;;24.13;13.83;;;3.60;1.00;;;;;;5034020;28;20213;-56
2022/12/09 12:55:42;;;;;;;28.23;14.13;;;3.70;1.00;;;;;;5028638;28;20200;-56
2022/12/09 12:58:37;;;;;;;27.80;15.60;;;3.70;1.00;;;;;;5031755;28;20296;-56
2022/12/09 13:01:32;;;;;;;28.70;15.60;;;3.70;13.10;;;;;;5031612;28;20235;-55
2022/12/09 13:04:18;;;;;;;29.77;14.23;;;3.80;99.90;;;;;;5033009;28;20668;-57
2022/12/09 13:06:44;;;;;;;23.53;13.63;;;4.00;99.90;;;;;;5029773;28;20205;-55